Time;durP1;ratioP1;P1;durP2;ratioP2;P2;SDS_P1;SDS_P2;PMS_P1;PMS_P2;Temp;Humidity;BMP_temperature;BMP_pressure;BME280_temperature;BME280_humidity;BME280_pressure;Samples;Min_cycle;Max_cycle;Signal;HPM_P1;HPM_P2
2022/06/01 16:09:01;;;;;;;6.72;3.10;;;;;;;27.74;45.89;101024.72;1958810;73;26763;-59
2022/06/01 16:11:41;;;;;;;4.83;2.70;;;;;;;27.69;46.90;101022.49;1959052;72;25773;-60
2022/06/01 16:14:12;;;;;;;7.80;3.30;;;;;;;27.61;47.26;101022.48;1918286;75;21040;-60
2022/06/01 16:16:43;;;;;;;13.15;3.80;;;;;;;27.57;47.73;101021.61;1918367;75;21418;-60
2022/06/01 16:19:13;;;;;;;10.60;3.65;;;;;;;27.52;48.15;101014.00;1918274;75;21152;-60
2022/06/01 16:21:42;;;;;;;8.98;3.98;;;;;;;27.48;48.62;101015.31;1918361;75;21075;-60
2022/06/01 16:24:12;;;;;;;12.35;3.52;;;;;;;27.44;48.90;101016.66;1918212;75;21067;-60
2022/06/01 16:26:41;;;;;;;6.17;3.40;;;;;;;27.39;49.28;101013.59;1918129;74;21540;-62
2022/06/01 16:29:10;;;;;;;6.05;2.77;;;;;;;27.33;49.53;101007.86;1918277;75;21403;-60
2022/06/01 16:31:44;;;;;;;8.93;3.47;;;;;;;27.27;49.87;101015.25;1918249;75;21044;-60
2022/06/01 16:34:15;;;;;;;12.45;2.85;;;;;;;27.23;50.14;101011.15;1918302;75;21028;-60
2022/06/01 16:36:44;;;;;;;7.20;3.40;;;;;;;27.17;50.50;101011.81;1918303;75;21102;-60
2022/06/01 16:39:18;;;;;;;7.08;3.85;;;;;;;27.11;50.68;101013.30;1918126;75;21048;-62
2022/06/01 16:41:48;;;;;;;7.97;3.65;;;;;;;27.05;50.90;101011.23;1918435;75;21067;-60
2022/06/01 16:44:23;;;;;;;9.05;3.00;;;;;;;27.00;51.25;101016.77;1918253;75;21044;-60
2022/06/01 16:46:52;;;;;;;7.53;3.08;;;;;;;26.94;51.44;101013.70;1918264;75;21055;-60
2022/06/01 16:49:20;;;;;;;8.85;3.20;;;;;;;26.87;51.87;101015.38;1918241;75;21003;-62
2022/06/01 16:51:49;;;;;;;9.45;2.90;;;;;;;26.78;52.01;101005.49;1918108;75;21008;-61
2022/06/01 16:54:18;;;;;;;11.12;3.55;;;;;;;26.72;52.30;101003.44;1918313;75;21035;-61
2022/06/01 16:56:47;;;;;;;8.25;3.47;;;;;;;26.62;52.64;101006.25;1918269;75;21446;-61
2022/06/01 16:59:16;;;;;;;12.03;3.58;;;;;;;26.56;52.85;101000.11;1918238;75;21113;-61
2022/06/01 17:01:45;;;;;;;9.38;3.42;;;;;;;26.48;53.20;101002.23;1918225;75;21028;-62
2022/06/01 17:04:14;;;;;;;8.05;3.37;;;;;;;26.39;53.27;101000.47;1918013;75;21004;-62
2022/06/01 17:06:43;;;;;;;6.80;3.05;;;;;;;26.31;53.52;101000.42;1918249;75;21063;-62
2022/06/01 17:09:12;;;;;;;8.05;3.62;;;;;;;26.21;53.82;101003.22;1918345;75;21529;-62
2022/06/01 17:11:41;;;;;;;5.58;3.55;;;;;;;26.13;54.08;101006.66;1909540;75;21040;-62
2022/06/01 17:14:10;;;;;;;7.80;4.00;;;;;;;26.07;54.52;100999.71;1905939;75;21028;-61
2022/06/01 17:16:42;;;;;;;8.70;3.50;;;;;;;26.01;54.99;100997.13;1905897;75;21124;-62
2022/06/01 17:19:11;;;;;;;9.85;3.62;;;;;;;25.96;55.01;100995.39;1905855;75;21036;-61
2022/06/01 17:21:40;;;;;;;11.97;4.33;;;;;;;25.91;56.09;100993.63;1905594;74;21435;-61
2022/06/01 17:24:09;;;;;;;8.75;4.12;;;;;;;25.86;55.81;100993.23;1905219;75;21028;-61
2022/06/01 17:26:38;;;;;;;10.30;3.70;;;;;;;25.80;55.70;100995.56;1905281;75;21106;-62
2022/06/01 17:29:07;;;;;;;7.90;3.92;;;;;;;25.75;55.98;100983.53;1905140;75;21048;-62
2022/06/01 17:31:36;;;;;;;6.65;3.70;;;;;;;25.71;56.39;100982.13;1905107;75;21115;-61
2022/06/01 17:34:06;;;;;;;10.23;4.75;;;;;;;25.65;56.68;100980.88;1905421;75;21036;-61
2022/06/01 17:36:36;;;;;;;26.55;12.10;;;;;;;25.61;56.67;100982.20;1905294;75;21467;-62
2022/06/01 17:39:07;;;;;;;48.17;21.07;;;;;;;25.56;57.28;100981.32;1905017;75;21158;-61
2022/06/01 17:41:35;;;;;;;28.02;11.60;;;;;;;25.52;57.18;100989.84;1905195;75;21114;-63
2022/06/01 17:44:05;;;;;;;22.05;8.55;;;;;;;25.45;57.76;100990.94;1905090;75;21068;-61
2022/06/01 17:46:33;;;;;;;11.00;6.45;;;;;;;25.39;57.70;100995.09;1905299;75;21076;-61
2022/06/01 17:49:02;;;;;;;14.13;6.55;;;;;;;25.35;57.71;100998.25;1905212;75;21633;-61
2022/06/01 17:51:31;;;;;;;17.30;4.97;;;;;;;25.29;57.88;101004.25;1905175;75;21044;-61
2022/06/01 17:54:00;;;;;;;13.72;4.50;;;;;;;25.22;58.01;100999.91;1905211;74;21114;-61
2022/06/01 17:56:34;;;;;;;14.15;5.60;;;;;;;25.16;58.20;101000.52;1905205;75;21044;-61
2022/06/01 17:59:05;;;;;;;11.18;5.12;;;;;;;25.08;58.54;100997.70;1905222;75;21095;-61
2022/06/01 18:01:34;;;;;;;14.70;4.90;;;;;;;25.02;58.81;101003.19;1905200;75;21033;-61
2022/06/01 18:04:04;;;;;;;13.03;4.72;;;;;;;24.96;58.67;101005.97;1905198;75;21587;-61
2022/06/01 18:06:33;;;;;;;9.38;4.80;;;;;;;24.92;58.63;101011.31;1905183;75;21549;-64
2022/06/01 18:09:05;;;;;;;11.53;5.10;;;;;;;24.85;59.03;101016.92;1905279;75;21765;-61
2022/06/01 18:11:34;;;;;;;17.33;5.53;;;;;;;24.80;59.26;101023.23;1905465;74;21130;-62
2022/06/01 18:14:03;;;;;;;23.35;7.17;;;;;;;24.74;59.37;101026.52;1905188;75;21056;-62
2022/06/01 18:16:34;;;;;;;28.75;8.58;;;;;;;24.69;59.63;101027.45;1905254;74;21466;-61
2022/06/01 18:19:04;;;;;;;38.33;10.50;;;;;;;24.64;59.88;101034.60;1905233;75;21490;-63
2022/06/01 18:21:33;;;;;;;33.92;9.85;;;;;;;24.57;60.16;101031.66;1905141;75;21048;-61
2022/06/01 18:24:02;;;;;;;25.72;9.35;;;;;;;24.52;60.16;101036.61;1905266;75;21044;-61
2022/06/01 18:26:31;;;;;;;33.20;10.03;;;;;;;24.47;59.96;101048.27;1905270;75;21102;-61
2022/06/01 18:29:04;;;;;;;27.80;9.15;;;;;;;24.39;60.11;101042.26;1905321;75;21455;-61
2022/06/01 18:31:39;;;;;;;19.45;7.28;;;;;;;24.34;60.08;101046.38;1905120;74;21098;-61
2022/06/01 18:34:04;;;;;;;25.27;7.12;;;;;;;24.26;60.36;101042.55;1903360;74;21181;-61
2022/06/01 18:36:33;;;;;;;18.52;6.75;;;;;;;24.16;60.85;101039.02;1905277;75;21160;-61
2022/06/01 18:39:02;;;;;;;14.78;5.62;;;;;;;24.10;60.86;101038.22;1905302;75;21122;-61
2022/06/01 18:41:30;;;;;;;20.48;7.58;;;;;;;24.04;61.09;101034.76;1905201;75;21044;-61
2022/06/01 18:44:00;;;;;;;16.70;5.37;;;;;;;23.98;61.23;101032.14;1905218;75;21040;-62
2022/06/01 18:46:31;;;;;;;13.58;5.20;;;;;;;23.88;61.90;101038.86;1905221;75;21467;-61
2022/06/01 18:49:00;;;;;;;12.03;5.17;;;;;;;23.78;62.14;101025.84;1905310;75;21032;-61
2022/06/01 18:51:34;;;;;;;17.37;5.83;;;;;;;23.71;62.23;101030.91;1905188;75;21000;-61
2022/06/01 18:54:03;;;;;;;15.35;6.20;;;;;;;23.61;62.61;101030.06;1905171;75;21518;-61
2022/06/01 18:56:32;;;;;;;13.32;4.28;;;;;;;23.50;63.10;101024.80;1905222;75;21470;-61
2022/06/01 18:59:01;;;;;;;12.53;4.55;;;;;;;23.37;63.64;101029.08;1905196;75;21040;-61
2022/06/01 19:01:40;;;;;;;12.78;4.30;;;;;;;23.26;63.89;101030.52;1905195;75;21036;-61
2022/06/01 19:04:12;;;;;;;11.12;4.17;;;;;;;23.22;64.06;101033.09;1905239;75;21466;-61
2022/06/01 19:06:43;;;;;;;10.50;4.42;;;;;;;23.17;63.89;101032.67;1905261;74;21133;-61
2022/06/01 19:09:12;;;;;;;17.07;5.42;;;;;;;23.07;64.32;101032.13;1904022;74;21036;-62
2022/06/01 19:11:41;;;;;;;16.32;4.65;;;;;;;23.01;64.38;101038.48;1905214;74;21001;-61
2022/06/01 19:14:10;;;;;;;12.28;5.42;;;;;;;22.95;64.39;101029.13;1905284;75;21028;-62
2022/06/01 19:16:42;;;;;;;10.28;4.58;;;;;;;22.86;64.79;101032.12;1905225;75;21463;-61
2022/06/01 19:19:16;;;;;;;17.65;5.15;;;;;;;22.79;65.21;101033.63;1905539;75;21025;-60
2022/06/01 19:21:45;;;;;;;13.68;5.05;;;;;;;22.74;65.20;101039.88;1899702;74;21036;-60
2022/06/01 19:24:14;;;;;;;10.38;4.80;;;;;;;22.65;65.57;101040.19;1905140;75;21024;-60
2022/06/01 19:26:49;;;;;;;8.08;4.67;;;;;;;22.54;66.25;101037.58;1905410;75;21057;-60
2022/06/01 19:29:24;;;;;;;11.00;5.05;;;;;;;22.43;66.64;101049.22;1903478;74;21044;-60
2022/06/01 19:31:53;;;;;;;16.97;4.97;;;;;;;22.33;66.64;101049.11;1905179;75;21028;-61
2022/06/01 19:34:23;;;;;;;15.13;4.97;;;;;;;22.25;67.11;101044.86;1905082;74;21048;-61
2022/06/01 19:45:20;;;;;;;14.40;5.40;;;;;;;22.00;67.78;101053.24;1905185;75;21049;-60
2022/06/01 19:47:48;;;;;;;10.68;5.45;;;;;;;21.93;68.08;101056.91;1905126;74;21028;-61
2022/06/01 19:50:18;;;;;;;14.30;6.67;;;;;;;21.88;68.14;101052.44;1905166;75;21105;-60
2022/06/01 19:52:47;;;;;;;22.02;8.70;;;;;;;21.83;68.53;101064.86;1892517;75;21516;-60
2022/06/01 19:55:16;;;;;;;20.05;9.30;;;;;;;21.72;68.95;101059.02;1905296;75;21118;-61
2022/06/01 19:57:45;;;;;;;25.82;10.32;;;;;;;21.68;69.00;101059.41;1905221;74;21610;-60
2022/06/01 20:00:14;;;;;;;20.60;8.95;;;;;;;21.65;68.72;101061.83;1905185;75;21041;-60
2022/06/01 20:02:54;;;;;;;21.90;9.03;;;;;;;21.62;68.72;101061.26;1905287;74;21036;-60
2022/06/01 20:05:21;;;;;;;15.48;6.62;;;;;;;21.53;69.20;101060.16;1903670;74;21569;-60
2022/06/01 20:07:52;;;;;;;12.45;5.58;;;;;;;21.42;69.86;101055.62;1905098;75;21467;-61
2022/06/01 20:10:22;;;;;;;14.87;5.50;;;;;;;21.36;70.01;101060.14;1905275;75;21029;-60
2022/06/01 20:15:41;;;;;;;12.98;5.15;;;;;;;21.21;70.61;101060.37;1924497;74;21023;-60
2022/06/01 20:18:12;;;;;;;14.38;5.80;;;;;;;21.14;70.40;101061.83;1924662;74;21024;-60
2022/06/01 20:20:40;;;;;;;13.93;5.42;;;;;;;21.12;70.48;101070.48;1924691;74;21031;-60
2022/06/01 20:23:11;;;;;;;12.53;6.05;;;;;;;21.08;70.65;101073.50;1924060;74;21079;-60
2022/06/01 20:25:41;;;;;;;14.98;6.10;;;;;;;21.03;70.86;101075.21;1924539;74;21434;-60
2022/06/01 20:28:11;;;;;;;16.52;6.10;;;;;;;20.96;71.29;101067.29;1924554;74;21036;-60
2022/06/01 20:30:39;;;;;;;22.27;6.05;;;;;;;20.89;71.82;101067.39;1924408;74;21121;-61
2022/06/01 20:33:08;;;;;;;14.30;5.62;;;;;;;20.81;71.96;101067.98;1924486;74;21031;-60
2022/06/01 20:35:37;;;;;;;13.35;6.37;;;;;;;20.75;71.83;101067.98;1924659;74;21000;-61
2022/06/01 20:38:06;;;;;;;10.90;5.42;;;;;;;20.71;71.91;101065.64;1924536;74;21082;-61
2022/06/01 20:40:35;;;;;;;11.95;5.45;;;;;;;20.72;71.90;101064.19;1924543;74;21819;-61
2022/06/01 20:43:03;;;;;;;11.45;4.80;;;;;;;20.70;71.88;101062.62;1924440;74;21035;-63
2022/06/01 20:45:33;;;;;;;13.88;4.87;;;;;;;20.67;72.15;101062.84;1924498;74;21033;-61
2022/06/01 20:48:02;;;;;;;11.05;4.95;;;;;;;20.65;71.82;101064.78;1924533;74;21527;-61
2022/06/01 20:50:33;;;;;;;14.45;5.47;;;;;;;20.60;72.35;101065.09;1924519;74;21462;-61
2022/06/01 20:53:01;;;;;;;11.28;6.33;;;;;;;20.55;72.35;101069.95;1924488;74;21028;-61
2022/06/01 20:55:30;;;;;;;15.05;5.33;;;;;;;20.47;73.38;101057.14;1924626;74;21024;-63
2022/06/01 20:58:01;;;;;;;11.45;5.15;;;;;;;20.41;73.36;101063.81;1924649;74;21564;-61
2022/06/01 21:00:30;;;;;;;10.15;5.50;;;;;;;20.40;73.17;101062.61;1924642;74;21454;-61
2022/06/01 21:02:59;;;;;;;13.75;5.97;;;;;;;20.35;73.88;101066.11;1924756;74;21051;-61
2022/06/01 21:05:30;;;;;;;10.38;5.45;;;;;;;20.26;74.42;101059.63;1924770;74;21047;-61
2022/06/01 21:08:03;;;;;;;13.88;5.40;;;;;;;20.19;74.58;101059.22;1924572;74;21003;-62
2022/06/01 21:10:33;;;;;;;14.47;6.30;;;;;;;20.12;74.82;101058.45;1924762;74;21160;-61
2022/06/01 21:13:02;;;;;;;18.70;8.28;;;;;;;20.10;74.87;101057.72;1923505;74;21105;-61
2022/06/01 21:15:36;;;;;;;17.05;9.05;;;;;;;20.05;75.32;101057.58;1905250;75;21118;-61
2022/06/01 21:18:06;;;;;;;15.45;7.95;;;;;;;19.99;75.45;101058.05;1905282;75;21005;-61
2022/06/01 21:20:35;;;;;;;16.77;8.48;;;;;;;19.95;75.88;101061.89;1905187;75;21033;-61
2022/06/01 21:23:04;;;;;;;15.90;7.72;;;;;;;19.91;76.17;101059.08;1905278;75;21082;-61
2022/06/01 21:25:34;;;;;;;14.13;7.87;;;;;;;19.84;76.73;101056.48;1905352;75;21090;-60
2022/06/01 21:28:03;;;;;;;14.38;8.10;;;;;;;19.80;76.62;101057.67;1905283;75;21106;-61
2022/06/01 21:30:31;;;;;;;22.65;8.83;;;;;;;19.77;76.87;101064.11;1905336;75;21098;-61
2022/06/01 21:33:00;;;;;;;17.48;8.30;;;;;;;19.72;77.11;101064.89;1905213;75;21024;-61
2022/06/01 21:35:29;;;;;;;15.65;8.33;;;;;;;19.66;77.53;101055.50;1905298;75;21193;-60
2022/06/01 21:37:57;;;;;;;13.88;7.37;;;;;;;19.64;77.62;101056.09;1905257;75;21033;-61
2022/06/01 21:40:26;;;;;;;13.50;6.62;;;;;;;19.63;77.88;101062.39;1905345;75;21481;-61
2022/06/01 21:42:55;;;;;;;13.08;7.22;;;;;;;19.60;77.59;101065.27;1905269;75;21047;-61
2022/06/01 21:45:24;;;;;;;15.80;6.65;;;;;;;19.54;77.99;101057.70;1905283;75;21098;-61
2022/06/01 21:47:56;;;;;;;15.48;6.80;;;;;;;19.48;77.59;101058.16;1905146;74;21040;-61
2022/06/01 21:50:26;;;;;;;13.63;6.10;;;;;;;19.44;77.99;101048.63;1905518;75;21001;-61
2022/06/01 21:52:55;;;;;;;20.85;6.95;;;;;;;19.41;78.23;101056.89;1905173;75;21744;-61
2022/06/01 21:55:23;;;;;;;13.43;6.55;;;;;;;19.37;78.69;101060.26;1905232;75;21024;-61
2022/06/01 21:57:52;;;;;;;19.67;13.80;;;;;;;19.33;78.71;101058.77;1905527;75;21004;-61
2022/06/01 22:00:39;;;;;;;54.40;41.85;;;;;;;19.31;78.48;101059.83;1905086;75;21005;-62
2022/06/01 22:03:11;;;;;;;67.15;54.15;;;;;;;19.29;78.50;101059.47;1904709;74;21083;-61
2022/06/01 22:05:42;;;;;;;53.33;40.15;;;;;;;19.24;78.83;101058.94;1905240;75;21041;-61
2022/06/01 22:08:12;;;;;;;64.17;49.38;;;;;;;19.18;78.79;101055.38;1905112;74;21435;-61
2022/06/01 22:13:28;;;;;;;41.90;27.48;;;;;;;19.10;79.42;101057.70;1905341;75;21017;-61
2022/06/01 22:15:57;;;;;;;38.83;22.32;;;;;;;19.09;79.43;101052.86;1923451;74;21132;-61
2022/06/01 22:18:26;;;;;;;29.92;19.87;;;;;;;19.09;79.37;101054.68;1924574;74;21460;-61
2022/06/01 22:20:55;;;;;;;26.70;19.00;;;;;;;19.07;79.54;101051.23;1913221;74;21497;-69
2022/06/01 22:23:27;;;;;;;26.10;15.00;;;;;;;19.05;79.50;101051.38;1922753;74;21008;-65
2022/06/01 22:25:57;;;;;;;30.40;18.62;;;;;;;19.03;79.66;101053.75;1922131;74;21129;-67
2022/06/01 22:28:27;;;;;;;26.95;17.50;;;;;;;19.01;79.49;101053.02;1891356;76;21031;-70
2022/06/01 22:30:55;;;;;;;19.90;10.40;;;;;;;18.97;79.71;101051.03;1891537;76;21527;-68
2022/06/01 22:33:24;;;;;;;15.93;6.53;;;;;;;18.95;79.67;101052.11;1891419;76;21102;-69
2022/06/01 22:38:43;;;;;;;18.15;7.70;;;;;;;18.80;79.98;101052.17;1900480;74;21638;-70
2022/06/01 22:44:03;;;;;;;22.58;9.18;;;;;;;18.71;80.38;101058.14;1924448;74;21012;-60
2022/06/01 22:46:33;;;;;;;17.75;10.15;;;;;;;18.65;80.24;101052.75;1924648;74;21032;-60
2022/06/01 22:49:05;;;;;;;20.30;12.23;;;;;;;18.66;80.71;101054.92;1924738;74;21462;-59
2022/06/01 22:51:37;;;;;;;24.57;14.35;;;;;;;18.66;80.96;101056.26;1924750;74;21031;-60
2022/06/01 22:54:06;;;;;;;21.87;16.87;;;;;;;18.64;81.28;101056.36;1924677;74;21097;-59
2022/06/01 22:56:36;;;;;;;22.32;17.25;;;;;;;18.60;81.46;101056.20;1924462;74;21008;-60
2022/06/01 22:59:05;;;;;;;28.02;18.87;;;;;;;18.58;81.30;101051.94;1924583;74;21531;-60
2022/06/01 23:01:33;;;;;;;27.27;19.87;;;;;;;18.56;81.37;101055.19;1924666;74;21043;-63
2022/06/01 23:04:02;;;;;;;22.05;12.60;;;;;;;18.49;81.64;101060.92;1924581;74;21031;-60
2022/06/01 23:06:31;;;;;;;13.62;6.35;;;;;;;18.44;82.00;101062.19;1924606;74;21101;-59
2022/06/01 23:09:00;;;;;;;16.35;6.08;;;;;;;18.39;81.97;101066.96;1924437;74;21109;-59
2022/06/01 23:11:29;;;;;;;11.90;6.03;;;;;;;18.37;81.67;101080.87;1924776;74;21035;-60
2022/06/01 23:13:57;;;;;;;14.50;7.00;;;;;;;18.33;81.47;101075.77;1924446;74;21035;-60
2022/06/01 23:16:26;;;;;;;14.10;6.58;;;;;;;18.30;81.41;101077.78;1898568;74;21043;-61
2022/06/01 23:18:55;;;;;;;21.90;7.33;;;;;;;18.26;81.12;101079.80;1891474;75;21035;-61
2022/06/01 23:21:25;;;;;;;24.92;8.73;;;;;;;18.22;80.95;101080.08;1891307;75;21043;-61
2022/06/01 23:23:54;;;;;;;22.85;7.92;;;;;;;18.16;81.14;101073.34;1891555;75;21015;-61
2022/06/01 23:26:30;;;;;;;17.82;9.75;;;;;;;18.14;81.54;101070.77;1891443;76;21120;-61
2022/06/01 23:29:28;;;;;;;15.45;10.70;;;;;;;18.12;82.06;101070.02;1891549;76;21081;-61
2022/06/01 23:32:34;;;;;;;28.30;10.98;;;;;;;18.11;82.28;101076.33;1891313;76;21027;-62
2022/06/01 23:35:28;;;;;;;17.73;10.08;;;;;;;18.09;82.76;101080.03;1891537;75;21543;-61
2022/06/01 23:38:14;;;;;;;19.17;9.85;;;;;;;18.02;83.09;101079.59;1891701;76;21115;-61
2022/06/01 23:40:48;;;;;;;13.80;7.33;;;;;;;17.94;83.40;101076.55;1891512;75;21040;-61
2022/06/01 23:43:20;;;;;;;15.18;8.40;;;;;;;17.90;83.52;101085.70;1890836;75;21083;-61
2022/06/01 23:46:17;;;;;;;16.30;8.48;;;;;;;17.86;83.59;101088.20;1891131;75;21180;-61
2022/06/01 23:49:07;;;;;;;18.30;8.93;;;;;;;17.83;83.95;101092.34;1891339;76;21023;-62
2022/06/01 23:51:38;;;;;;;18.82;10.30;;;;;;;17.82;83.79;101091.98;1891484;75;21016;-60
2022/06/01 23:54:34;;;;;;;24.90;12.25;;;;;;;17.81;84.13;101092.92;1891554;76;21031;-61
2022/06/01 23:57:28;;;;;;;20.65;10.68;;;;;;;17.79;84.44;101102.33;1890379;75;21043;-61
